createdAt,value
2024-01-09T00:00:02.203Z,-5.1
2024-01-09T00:02:01.301Z,-5.1
2024-01-09T00:04:00.766Z,-5.1
2024-01-09T00:06:00.511Z,-5.1
2024-01-09T00:09:59.146Z,-5.1
2024-01-09T00:11:58.390Z,-5.2
2024-01-09T00:13:57.760Z,-5.2
2024-01-09T00:15:57.116Z,-5.2
2024-01-09T00:17:56.860Z,-5.2
2024-01-09T00:19:55.958Z,-5.3
2024-01-09T00:21:56.112Z,-5.3
2024-01-09T00:23:55.144Z,-5.3
2024-01-09T00:25:55.812Z,-5.3
2024-01-09T00:27:53.588Z,-5.3
2024-01-09T00:29:52.945Z,-5.3
2024-01-09T00:31:52.756Z,-5.3
2024-01-09T00:33:51.965Z,-5.3
2024-01-09T00:35:51.279Z,-5.3
2024-01-09T00:37:50.391Z,-5.3
2024-01-09T00:39:50.881Z,-5.3
2024-01-09T00:43:48.875Z,-5.4
2024-01-09T00:45:48.041Z,-5.4
2024-01-09T00:47:47.544Z,-5.4
2024-01-09T00:49:46.870Z,-5.4
2024-01-09T00:51:46.420Z,-5.3
2024-01-09T00:53:45.656Z,-5.4
2024-01-09T00:55:44.964Z,-5.5
2024-01-09T00:57:44.355Z,-5.4
2024-01-09T00:59:43.790Z,-5.4
2024-01-09T01:03:43.874Z,-5.5
2024-01-09T01:05:41.953Z,-5.5
2024-01-09T01:07:41.335Z,-5.5
2024-01-09T01:09:40.626Z,-5.4
2024-01-09T01:11:40.305Z,-5.5
2024-01-09T01:13:39.563Z,-5.5
2024-01-09T01:15:38.897Z,-5.5
2024-01-09T01:17:38.472Z,-5.5
2024-01-09T01:19:37.755Z,-5.6
2024-01-09T01:21:37.060Z,-5.6
2024-01-09T01:23:37.828Z,-5.6
2024-01-09T01:25:36.219Z,-5.6
2024-01-09T01:27:35.246Z,-5.5
2024-01-09T01:29:34.742Z,-5.4
2024-01-09T01:31:34.191Z,-5.3
2024-01-09T01:33:33.728Z,-5.5
2024-01-09T01:35:32.979Z,-5.4
2024-01-09T01:37:32.537Z,-5.3
2024-01-09T01:39:31.834Z,-5.4
2024-01-09T01:41:31.138Z,-5.5
2024-01-09T01:43:30.724Z,-5.5
2024-01-09T01:45:29.854Z,-5.4
2024-01-09T01:47:29.591Z,-5.4
2024-01-09T01:49:29.421Z,-5.5
2024-01-09T01:51:27.987Z,-5.5
2024-01-09T01:53:31.296Z,-5.5
2024-01-09T01:55:28.480Z,-5.5
2024-01-09T01:57:26.840Z,-5.6
2024-01-09T01:59:26.108Z,-5.5
2024-01-09T02:01:25.939Z,-5.5
2024-01-09T02:03:24.390Z,-5.5
2024-01-09T02:05:26.204Z,-5.5
2024-01-09T02:07:25.537Z,-5.5
2024-01-09T02:13:21.492Z,-5.5
2024-01-09T02:15:20.826Z,-5.6
2024-01-09T02:17:20.408Z,-5.7
2024-01-09T02:19:21.897Z,-5.6
2024-01-09T02:21:18.890Z,-5.6
2024-01-09T02:23:18.372Z,-5.6
2024-01-09T02:25:17.785Z,-5.8
2024-01-09T02:27:24.184Z,-5.7
2024-01-09T02:29:22.269Z,-5.8
2024-01-09T02:31:16.655Z,-5.8
2024-01-09T02:33:15.954Z,-5.8
2024-01-09T02:35:14.782Z,-5.8
2024-01-09T02:37:15.084Z,-5.9
2024-01-09T02:39:13.625Z,-5.9
2024-01-09T02:41:12.850Z,-5.9
2024-01-09T02:43:12.411Z,-5.9
2024-01-09T02:45:13.666Z,-5.9
2024-01-09T02:47:11.104Z,-5.8
2024-01-09T02:49:11.244Z,-5.8
2024-01-09T02:55:08.779Z,-6.0
2024-01-09T02:57:09.737Z,-6.0
2024-01-09T02:59:07.775Z,-5.9
2024-01-09T03:01:08.133Z,-5.9
2024-01-09T03:03:06.264Z,-6.0
2024-01-09T03:07:05.190Z,-5.9
2024-01-09T03:09:04.422Z,-6.0
2024-01-09T03:11:03.955Z,-5.9
2024-01-09T03:13:03.523Z,-6.0
2024-01-09T03:15:03.053Z,-6.0
2024-01-09T03:17:02.003Z,-6.0
2024-01-09T03:19:01.853Z,-5.9
2024-01-09T03:21:00.787Z,-6.0
2024-01-09T03:23:00.245Z,-6.0
2024-01-09T03:24:59.563Z,-6.0
2024-01-09T03:26:58.954Z,-6.1
2024-01-09T03:28:59.863Z,-6.1
2024-01-09T03:30:57.743Z,-6.1
2024-01-09T03:32:57.278Z,-6.1
2024-01-09T03:34:56.613Z,-6.1
2024-01-09T03:36:56.641Z,-6.0
2024-01-09T03:38:55.511Z,-6.1
2024-01-09T03:40:54.611Z,-6.1
2024-01-09T03:42:54.395Z,-6.1
2024-01-09T03:44:53.408Z,-6.1
2024-01-09T03:48:52.125Z,-6.2
2024-01-09T03:50:51.740Z,-6.2
2024-01-09T03:52:51.061Z,-6.1
2024-01-09T03:54:50.366Z,-6.1
2024-01-09T03:56:49.801Z,-6.1
2024-01-09T03:58:49.011Z,-6.1
2024-01-09T04:04:48.035Z,-6.2
2024-01-09T04:06:46.662Z,-6.1
2024-01-09T04:08:46.697Z,-6.2
2024-01-09T04:10:45.478Z,-6.2
2024-01-09T04:12:44.691Z,-6.2
2024-01-09T04:14:44.104Z,-6.2
2024-01-09T04:16:44.798Z,-6.2
2024-01-09T04:18:42.925Z,-6.3
2024-01-09T04:20:42.787Z,-6.2
2024-01-09T04:22:41.746Z,-6.3
2024-01-09T04:24:41.074Z,-6.2
2024-01-09T04:26:40.595Z,-6.3
2024-01-09T04:30:39.216Z,-6.3
2024-01-09T04:32:38.767Z,-6.3
2024-01-09T04:34:38.007Z,-6.3
2024-01-09T04:36:37.315Z,-6.3
2024-01-09T04:40:36.153Z,-6.3
2024-01-09T04:42:35.495Z,-6.3
2024-01-09T04:44:35.036Z,-6.3
2024-01-09T04:46:34.218Z,-6.3
2024-01-09T04:50:33.001Z,-6.3
2024-01-09T04:52:32.379Z,-6.4
2024-01-09T04:54:34.967Z,-6.4
2024-01-09T04:56:31.182Z,-6.4
2024-01-09T05:00:29.891Z,-6.4
2024-01-09T05:02:29.180Z,-6.3
2024-01-09T05:08:27.435Z,-6.4
2024-01-09T05:10:26.758Z,-6.4
2024-01-09T05:12:25.955Z,-6.4
2024-01-09T05:14:25.296Z,-6.4
2024-01-09T05:16:26.298Z,-6.4
2024-01-09T05:18:24.211Z,-6.5
2024-01-09T05:20:23.727Z,-6.4
2024-01-09T05:22:22.830Z,-6.5
2024-01-09T05:24:22.411Z,-6.5
2024-01-09T05:26:21.638Z,-6.4
2024-01-09T05:28:20.964Z,-6.5
2024-01-09T05:32:19.866Z,-6.6
2024-01-09T05:38:19.019Z,-6.6
2024-01-09T05:40:17.316Z,-6.5
2024-01-09T05:42:16.694Z,-6.6
2024-01-09T05:46:15.916Z,-6.7
2024-01-09T05:48:14.863Z,-6.6
2024-01-09T05:50:14.130Z,-6.6
2024-01-09T05:52:13.452Z,-6.6
2024-01-09T05:54:12.712Z,-6.6
2024-01-09T05:56:14.798Z,-6.6
2024-01-09T05:58:12.606Z,-6.7
2024-01-09T06:00:11.831Z,-6.7
2024-01-09T06:02:11.335Z,-6.7
2024-01-09T06:04:09.853Z,-6.6
2024-01-09T06:06:10.415Z,-6.6
2024-01-09T06:08:08.444Z,-6.6
2024-01-09T06:10:07.923Z,-6.6
2024-01-09T06:12:07.522Z,-6.6
2024-01-09T06:14:06.371Z,-6.6
2024-01-09T06:16:06.223Z,-6.6
2024-01-09T06:18:05.403Z,-6.6
2024-01-09T06:20:05.128Z,-6.6
2024-01-09T06:22:04.140Z,-6.6
2024-01-09T06:24:03.704Z,-6.6
2024-01-09T06:26:02.604Z,-6.6
2024-01-09T06:28:01.955Z,-6.6
2024-01-09T06:30:01.514Z,-6.6
2024-01-09T06:32:00.644Z,-6.6
2024-01-09T06:34:00.451Z,-6.6
2024-01-09T06:36:00.820Z,-6.6
2024-01-09T06:37:58.838Z,-6.6
2024-01-09T06:39:57.989Z,-6.6
2024-01-09T06:41:57.333Z,-6.6
2024-01-09T06:43:56.642Z,-6.6
2024-01-09T06:45:56.394Z,-6.6
2024-01-09T06:47:55.479Z,-6.6
2024-01-09T06:49:55.299Z,-6.6
2024-01-09T06:53:53.600Z,-6.6
2024-01-09T06:55:52.859Z,-6.6
2024-01-09T06:57:52.197Z,-6.6
2024-01-09T07:01:50.711Z,-6.6
2024-01-09T07:03:50.225Z,-6.6
2024-01-09T07:05:49.911Z,-6.6
2024-01-09T07:07:50.703Z,-6.6
2024-01-09T07:09:48.209Z,-6.6
2024-01-09T07:11:47.481Z,-6.6
2024-01-09T07:13:46.842Z,-6.6
2024-01-09T07:15:46.229Z,-6.6
2024-01-09T07:17:46.104Z,-6.6
2024-01-09T07:19:44.848Z,-6.6
2024-01-09T07:21:44.314Z,-6.6
2024-01-09T07:23:44.575Z,-6.6
2024-01-09T07:25:42.867Z,-6.6
2024-01-09T07:27:42.316Z,-6.6
2024-01-09T07:29:41.597Z,-6.6
2024-01-09T07:31:40.871Z,-6.6
2024-01-09T07:33:40.437Z,-6.6
2024-01-09T07:35:39.687Z,-6.6
2024-01-09T07:37:38.912Z,-6.6
2024-01-09T07:39:38.181Z,-6.6
2024-01-09T07:41:37.623Z,-6.6
2024-01-09T07:43:37.061Z,-6.6
2024-01-09T07:45:36.754Z,-6.6
2024-01-09T07:47:35.687Z,-6.6
2024-01-09T07:49:34.977Z,-6.6
2024-01-09T07:51:34.242Z,-6.6
2024-01-09T07:53:33.632Z,-6.6
2024-01-09T07:55:33.056Z,-6.6
2024-01-09T07:57:33.601Z,-6.6
2024-01-09T07:59:31.655Z,-6.6
2024-01-09T08:01:31.222Z,-6.6
2024-01-09T08:03:30.236Z,-6.6
2024-01-09T08:05:29.843Z,-6.6
2024-01-09T08:07:28.923Z,-6.6
2024-01-09T08:09:28.243Z,-6.6
2024-01-09T08:11:27.534Z,-6.6
2024-01-09T08:13:26.995Z,-6.6
2024-01-09T08:15:26.528Z,-6.6
2024-01-09T08:17:25.656Z,-6.6
2024-01-09T08:19:24.896Z,-6.6
2024-01-09T08:21:24.227Z,-6.6
2024-01-09T08:23:24.165Z,-6.6
2024-01-09T08:25:23.052Z,-6.6
2024-01-09T08:27:22.253Z,-6.6
2024-01-09T08:29:27.082Z,-6.6
2024-01-09T08:31:21.083Z,-6.6
2024-01-09T08:33:21.609Z,-6.6
2024-01-09T08:37:19.455Z,-6.6
2024-01-09T08:39:18.668Z,-6.6
2024-01-09T08:41:17.873Z,-6.6
2024-01-09T08:43:16.913Z,-6.6
2024-01-09T08:47:16.782Z,-6.6
2024-01-09T08:49:15.048Z,-6.6
2024-01-09T08:51:18.094Z,-6.6
2024-01-09T08:53:13.986Z,-6.6
2024-01-09T08:57:12.391Z,-6.6
2024-01-09T08:59:11.807Z,-6.6
2024-01-09T09:01:11.141Z,-6.6
2024-01-09T09:03:10.817Z,-6.6
2024-01-09T09:05:10.795Z,-6.6
2024-01-09T09:09:09.215Z,-6.6
2024-01-09T09:11:07.781Z,-6.6
2024-01-09T09:13:07.368Z,-6.6
2024-01-09T09:17:05.882Z,-6.6
2024-01-09T09:19:05.095Z,-6.6
2024-01-09T09:21:05.102Z,-6.6
2024-01-09T09:23:05.992Z,-6.6
2024-01-09T09:25:03.462Z,-6.6
2024-01-09T09:27:02.606Z,-6.6
2024-01-09T09:29:10.720Z,-6.6
2024-01-09T09:31:01.199Z,-6.6
2024-01-09T09:35:00.199Z,-6.6
2024-01-09T09:36:59.374Z,-6.6
2024-01-09T09:38:58.496Z,-6.6
2024-01-09T09:40:57.939Z,-6.6
2024-01-09T09:42:58.409Z,-6.6
2024-01-09T09:45:00.830Z,-6.6
2024-01-09T09:46:57.981Z,-6.6
2024-01-09T09:48:55.979Z,-6.6
2024-01-09T09:50:55.030Z,-6.6
2024-01-09T09:52:56.446Z,-6.6
2024-01-09T09:54:54.306Z,-6.6
2024-01-09T09:56:53.098Z,-6.6
2024-01-09T09:58:52.119Z,-6.6
2024-01-09T10:00:54.873Z,-6.6
2024-01-09T10:02:53.423Z,-6.6
2024-01-09T10:04:51.956Z,-6.6
2024-01-09T10:10:48.434Z,-6.6
2024-01-09T10:12:48.472Z,-6.6
2024-01-09T10:15:05.190Z,-6.6
2024-01-09T10:16:50.025Z,-6.6
2024-01-09T10:18:45.947Z,-6.6
2024-01-09T10:20:44.994Z,-6.6
2024-01-09T10:22:44.488Z,-6.6
2024-01-09T10:24:43.840Z,-6.6
2024-01-09T10:26:44.363Z,-6.6
2024-01-09T10:28:42.534Z,-6.6
2024-01-09T10:30:41.834Z,-6.6
2024-01-09T10:34:40.802Z,-6.6
2024-01-09T10:38:42.040Z,-6.6
